sensor_id;sensor_type;location;lat;lon;timestamp;P1;durP1;ratioP1;P2;durP2;ratioP2
52798;SDS011;38667;42.872;74.622;2023-05-29T00:00:25;14.18;;;5.72;;
52798;SDS011;38667;42.872;74.622;2023-05-29T00:02:52;16.20;;;6.00;;
52798;SDS011;38667;42.872;74.622;2023-05-29T00:05:18;17.85;;;6.20;;
52798;SDS011;38667;42.872;74.622;2023-05-29T00:07:44;17.75;;;6.35;;
52798;SDS011;38667;42.872;74.622;2023-05-29T00:10:12;31.85;;;7.68;;
52798;SDS011;38667;42.872;74.622;2023-05-29T00:12:38;16.95;;;6.45;;
52798;SDS011;38667;42.872;74.622;2023-05-29T00:15:05;12.68;;;5.95;;
52798;SDS011;38667;42.872;74.622;2023-05-29T00:17:32;16.17;;;6.57;;
52798;SDS011;38667;42.872;74.622;2023-05-29T00:19:58;18.08;;;6.03;;
52798;SDS011;38667;42.872;74.622;2023-05-29T00:22:24;15.48;;;6.40;;
52798;SDS011;38667;42.872;74.622;2023-05-29T00:24:51;12.05;;;6.60;;
52798;SDS011;38667;42.872;74.622;2023-05-29T00:27:18;15.40;;;6.78;;
52798;SDS011;38667;42.872;74.622;2023-05-29T00:29:45;18.17;;;6.90;;
52798;SDS011;38667;42.872;74.622;2023-05-29T00:32:11;17.27;;;6.82;;
52798;SDS011;38667;42.872;74.622;2023-05-29T00:34:37;16.42;;;7.00;;
52798;SDS011;38667;42.872;74.622;2023-05-29T00:37:04;13.63;;;6.25;;
52798;SDS011;38667;42.872;74.622;2023-05-29T00:39:30;16.58;;;6.70;;
52798;SDS011;38667;42.872;74.622;2023-05-29T00:41:56;13.25;;;7.03;;
52798;SDS011;38667;42.872;74.622;2023-05-29T00:44:24;12.10;;;6.97;;
52798;SDS011;38667;42.872;74.622;2023-05-29T00:46:51;13.30;;;6.93;;
52798;SDS011;38667;42.872;74.622;2023-05-29T00:49:18;16.27;;;7.43;;
52798;SDS011;38667;42.872;74.622;2023-05-29T00:51:45;15.95;;;7.05;;
52798;SDS011;38667;42.872;74.622;2023-05-29T00:54:14;20.90;;;7.20;;
52798;SDS011;38667;42.872;74.622;2023-05-29T00:56:45;17.10;;;6.50;;
52798;SDS011;38667;42.872;74.622;2023-05-29T00:59:12;12.43;;;6.80;;
52798;SDS011;38667;42.872;74.622;2023-05-29T01:01:40;16.33;;;7.28;;
52798;SDS011;38667;42.872;74.622;2023-05-29T01:04:07;19.88;;;7.68;;
52798;SDS011;38667;42.872;74.622;2023-05-29T01:06:34;16.42;;;8.00;;
52798;SDS011;38667;42.872;74.622;2023-05-29T01:09:01;13.77;;;8.20;;
52798;SDS011;38667;42.872;74.622;2023-05-29T01:11:29;17.08;;;9.38;;
52798;SDS011;38667;42.872;74.622;2023-05-29T01:14:02;18.13;;;8.65;;
52798;SDS011;38667;42.872;74.622;2023-05-29T01:16:35;13.75;;;7.93;;
52798;SDS011;38667;42.872;74.622;2023-05-29T01:19:10;16.67;;;8.80;;
52798;SDS011;38667;42.872;74.622;2023-05-29T01:21:52;20.98;;;10.13;;
52798;SDS011;38667;42.872;74.622;2023-05-29T01:24:28;23.40;;;9.63;;
52798;SDS011;38667;42.872;74.622;2023-05-29T01:27:04;15.48;;;9.45;;
52798;SDS011;38667;42.872;74.622;2023-05-29T01:29:32;21.13;;;9.00;;
52798;SDS011;38667;42.872;74.622;2023-05-29T01:32:00;21.08;;;9.55;;
52798;SDS011;38667;42.872;74.622;2023-05-29T01:34:26;17.48;;;9.90;;
52798;SDS011;38667;42.872;74.622;2023-05-29T01:36:53;20.38;;;9.15;;
52798;SDS011;38667;42.872;74.622;2023-05-29T01:39:19;16.38;;;8.63;;
52798;SDS011;38667;42.872;74.622;2023-05-29T01:41:46;20.40;;;8.90;;
52798;SDS011;38667;42.872;74.622;2023-05-29T01:44:15;22.25;;;8.73;;
52798;SDS011;38667;42.872;74.622;2023-05-29T01:46:42;26.58;;;9.63;;
52798;SDS011;38667;42.872;74.622;2023-05-29T01:49:08;21.15;;;9.48;;
52798;SDS011;38667;42.872;74.622;2023-05-29T01:51:35;22.27;;;9.68;;
52798;SDS011;38667;42.872;74.622;2023-05-29T01:54:02;24.90;;;9.57;;
52798;SDS011;38667;42.872;74.622;2023-05-29T01:56:29;22.63;;;9.65;;
52798;SDS011;38667;42.872;74.622;2023-05-29T01:58:56;23.45;;;10.98;;
52798;SDS011;38667;42.872;74.622;2023-05-29T02:03:55;23.60;;;10.32;;
52798;SDS011;38667;42.872;74.622;2023-05-29T03:12:39;24.02;;;9.80;;
52798;SDS011;38667;42.872;74.622;2023-05-29T03:15:06;29.45;;;11.35;;
52798;SDS011;38667;42.872;74.622;2023-05-29T03:17:32;22.33;;;10.05;;
52798;SDS011;38667;42.872;74.622;2023-05-29T03:19:59;22.77;;;9.90;;
52798;SDS011;38667;42.872;74.622;2023-05-29T03:22:25;18.70;;;9.27;;
52798;SDS011;38667;42.872;74.622;2023-05-29T03:24:51;18.70;;;8.93;;
52798;SDS011;38667;42.872;74.622;2023-05-29T03:27:18;21.73;;;9.50;;
52798;SDS011;38667;42.872;74.622;2023-05-29T03:29:46;21.48;;;8.32;;
52798;SDS011;38667;42.872;74.622;2023-05-29T03:32:12;23.42;;;9.57;;
52798;SDS011;38667;42.872;74.622;2023-05-29T03:34:38;25.95;;;9.25;;
52798;SDS011;38667;42.872;74.622;2023-05-29T03:37:04;28.95;;;10.20;;
52798;SDS011;38667;42.872;74.622;2023-05-29T03:39:31;23.35;;;8.98;;
52798;SDS011;38667;42.872;74.622;2023-05-29T03:41:57;23.98;;;9.98;;
52798;SDS011;38667;42.872;74.622;2023-05-29T03:44:23;19.95;;;9.57;;
52798;SDS011;38667;42.872;74.622;2023-05-29T03:46:51;26.02;;;10.82;;
52798;SDS011;38667;42.872;74.622;2023-05-29T03:49:18;32.20;;;10.32;;
52798;SDS011;38667;42.872;74.622;2023-05-29T03:51:44;22.05;;;8.90;;
52798;SDS011;38667;42.872;74.622;2023-05-29T03:54:10;16.48;;;8.18;;
52798;SDS011;38667;42.872;74.622;2023-05-29T03:56:37;21.27;;;9.45;;
52798;SDS011;38667;42.872;74.622;2023-05-29T03:59:03;21.48;;;10.05;;
52798;SDS011;38667;42.872;74.622;2023-05-29T04:01:29;27.17;;;10.07;;
52798;SDS011;38667;42.872;74.622;2023-05-29T04:03:57;26.08;;;9.60;;
52798;SDS011;38667;42.872;74.622;2023-05-29T04:06:23;24.42;;;9.20;;
52798;SDS011;38667;42.872;74.622;2023-05-29T04:08:50;19.83;;;10.00;;
52798;SDS011;38667;42.872;74.622;2023-05-29T04:11:16;27.40;;;10.50;;
52798;SDS011;38667;42.872;74.622;2023-05-29T04:13:43;23.77;;;10.20;;
52798;SDS011;38667;42.872;74.622;2023-05-29T04:16:09;28.88;;;10.82;;
52798;SDS011;38667;42.872;74.622;2023-05-29T04:18:36;31.30;;;11.57;;
52798;SDS011;38667;42.872;74.622;2023-05-29T04:21:04;21.83;;;11.15;;
52798;SDS011;38667;42.872;74.622;2023-05-29T04:23:30;18.70;;;9.57;;
52798;SDS011;38667;42.872;74.622;2023-05-29T04:25:57;26.77;;;10.23;;
52798;SDS011;38667;42.872;74.622;2023-05-29T04:28:23;35.72;;;11.82;;
52798;SDS011;38667;42.872;74.622;2023-05-29T04:30:49;17.88;;;10.15;;
52798;SDS011;38667;42.872;74.622;2023-05-29T04:33:17;19.98;;;10.75;;
52798;SDS011;38667;42.872;74.622;2023-05-29T04:35:43;28.45;;;11.38;;
52798;SDS011;38667;42.872;74.622;2023-05-29T04:38:11;15.88;;;8.77;;
52798;SDS011;38667;42.872;74.622;2023-05-29T04:40:37;19.20;;;9.73;;
52798;SDS011;38667;42.872;74.622;2023-05-29T04:43:04;30.15;;;10.23;;
52798;SDS011;38667;42.872;74.622;2023-05-29T04:45:30;21.08;;;11.25;;
52798;SDS011;38667;42.872;74.622;2023-05-29T04:47:56;15.50;;;9.57;;
52798;SDS011;38667;42.872;74.622;2023-05-29T04:50:23;19.23;;;9.45;;
52798;SDS011;38667;42.872;74.622;2023-05-29T04:52:49;20.10;;;8.63;;
52798;SDS011;38667;42.872;74.622;2023-05-29T04:55:17;23.65;;;9.73;;
52798;SDS011;38667;42.872;74.622;2023-05-29T04:57:43;19.38;;;10.18;;
52798;SDS011;38667;42.872;74.622;2023-05-29T05:00:10;15.50;;;8.30;;
52798;SDS011;38667;42.872;74.622;2023-05-29T05:02:37;15.88;;;8.77;;
52798;SDS011;38667;42.872;74.622;2023-05-29T05:05:03;19.02;;;9.00;;
52798;SDS011;38667;42.872;74.622;2023-05-29T05:07:30;14.15;;;9.45;;
52798;SDS011;38667;42.872;74.622;2023-05-29T05:09:56;21.65;;;8.80;;
52798;SDS011;38667;42.872;74.622;2023-05-29T05:12:24;18.20;;;8.88;;
52798;SDS011;38667;42.872;74.622;2023-05-29T05:14:50;14.77;;;8.48;;
52798;SDS011;38667;42.872;74.622;2023-05-29T05:17:17;12.82;;;7.47;;
52798;SDS011;38667;42.872;74.622;2023-05-29T05:19:43;20.73;;;8.57;;
52798;SDS011;38667;42.872;74.622;2023-05-29T05:22:09;21.55;;;8.25;;
52798;SDS011;38667;42.872;74.622;2023-05-29T05:24:36;13.13;;;7.70;;
52798;SDS011;38667;42.872;74.622;2023-05-29T05:27:03;15.13;;;6.97;;
52798;SDS011;38667;42.872;74.622;2023-05-29T05:29:31;15.50;;;7.25;;
52798;SDS011;38667;42.872;74.622;2023-05-29T05:31:57;18.60;;;8.32;;
52798;SDS011;38667;42.872;74.622;2023-05-29T05:34:24;13.60;;;7.65;;
52798;SDS011;38667;42.872;74.622;2023-05-29T05:36:50;13.80;;;8.30;;
52798;SDS011;38667;42.872;74.622;2023-05-29T05:39:16;14.45;;;7.50;;
52798;SDS011;38667;42.872;74.622;2023-05-29T05:41:43;19.38;;;8.18;;
52798;SDS011;38667;42.872;74.622;2023-05-29T05:44:09;13.35;;;7.13;;
52798;SDS011;38667;42.872;74.622;2023-05-29T05:46:37;14.98;;;8.00;;
52798;SDS011;38667;42.872;74.622;2023-05-29T05:49:03;20.65;;;7.60;;
52798;SDS011;38667;42.872;74.622;2023-05-29T05:51:29;11.57;;;7.10;;
52798;SDS011;38667;42.872;74.622;2023-05-29T05:53:55;13.13;;;7.07;;
52798;SDS011;38667;42.872;74.622;2023-05-29T05:56:22;19.40;;;8.07;;
52798;SDS011;38667;42.872;74.622;2023-05-29T05:58:48;16.42;;;6.78;;
52798;SDS011;38667;42.872;74.622;2023-05-29T06:01:14;10.70;;;6.90;;
52798;SDS011;38667;42.872;74.622;2023-05-29T06:03:42;10.55;;;6.85;;
52798;SDS011;38667;42.872;74.622;2023-05-29T06:06:08;11.68;;;6.60;;
52798;SDS011;38667;42.872;74.622;2023-05-29T06:08:35;9.48;;;6.35;;
52798;SDS011;38667;42.872;74.622;2023-05-29T06:11:01;16.17;;;6.15;;
52798;SDS011;38667;42.872;74.622;2023-05-29T06:13:27;9.80;;;5.90;;
52798;SDS011;38667;42.872;74.622;2023-05-29T06:15:54;11.85;;;6.28;;
52798;SDS011;38667;42.872;74.622;2023-05-29T06:18:20;15.25;;;5.82;;
52798;SDS011;38667;42.872;74.622;2023-05-29T06:20:48;8.80;;;5.32;;
52798;SDS011;38667;42.872;74.622;2023-05-29T06:23:14;7.03;;;4.97;;
52798;SDS011;38667;42.872;74.622;2023-05-29T06:25:41;8.35;;;5.07;;
52798;SDS011;38667;42.872;74.622;2023-05-29T06:28:07;8.55;;;4.82;;
52798;SDS011;38667;42.872;74.622;2023-05-29T06:30:33;8.93;;;5.57;;
52798;SDS011;38667;42.872;74.622;2023-05-29T06:33:00;9.88;;;5.35;;
52798;SDS011;38667;42.872;74.622;2023-05-29T06:35:26;6.70;;;4.97;;
52798;SDS011;38667;42.872;74.622;2023-05-29T06:37:54;11.10;;;5.35;;
52798;SDS011;38667;42.872;74.622;2023-05-29T06:40:20;9.50;;;5.30;;
52798;SDS011;38667;42.872;74.622;2023-05-29T06:42:46;9.95;;;5.20;;
52798;SDS011;38667;42.872;74.622;2023-05-29T06:45:13;8.68;;;4.90;;
52798;SDS011;38667;42.872;74.622;2023-05-29T06:47:39;9.52;;;4.95;;
52798;SDS011;38667;42.872;74.622;2023-05-29T06:50:06;9.40;;;5.00;;
52798;SDS011;38667;42.872;74.622;2023-05-29T06:52:33;8.75;;;4.40;;
52798;SDS011;38667;42.872;74.622;2023-05-29T06:55:01;7.20;;;5.03;;
52798;SDS011;38667;42.872;74.622;2023-05-29T06:57:27;8.70;;;4.90;;
52798;SDS011;38667;42.872;74.622;2023-05-29T06:59:53;8.20;;;4.78;;
52798;SDS011;38667;42.872;74.622;2023-05-29T07:02:20;8.10;;;4.50;;
52798;SDS011;38667;42.872;74.622;2023-05-29T07:04:46;11.13;;;4.90;;
52798;SDS011;38667;42.872;74.622;2023-05-29T07:07:12;6.38;;;4.13;;
52798;SDS011;38667;42.872;74.622;2023-05-29T07:09:38;10.27;;;4.57;;
52798;SDS011;38667;42.872;74.622;2023-05-29T07:12:07;8.35;;;4.70;;
52798;SDS011;38667;42.872;74.622;2023-05-29T07:14:33;8.88;;;4.47;;
52798;SDS011;38667;42.872;74.622;2023-05-29T07:16:59;9.63;;;4.68;;
52798;SDS011;38667;42.872;74.622;2023-05-29T07:19:26;9.75;;;4.85;;
52798;SDS011;38667;42.872;74.622;2023-05-29T07:21:52;6.47;;;4.78;;
52798;SDS011;38667;42.872;74.622;2023-05-29T07:24:18;10.65;;;4.57;;
52798;SDS011;38667;42.872;74.622;2023-05-29T07:26:44;10.82;;;5.63;;
52798;SDS011;38667;42.872;74.622;2023-05-29T07:29:12;7.82;;;4.47;;
52798;SDS011;38667;42.872;74.622;2023-05-29T07:31:39;10.70;;;5.00;;
52798;SDS011;38667;42.872;74.622;2023-05-29T07:34:05;9.02;;;4.53;;
52798;SDS011;38667;42.872;74.622;2023-05-29T07:36:31;10.18;;;5.22;;
52798;SDS011;38667;42.872;74.622;2023-05-29T07:38:58;8.02;;;4.18;;
52798;SDS011;38667;42.872;74.622;2023-05-29T07:41:24;13.65;;;5.00;;
52798;SDS011;38667;42.872;74.622;2023-05-29T07:43:50;9.77;;;5.00;;
52798;SDS011;38667;42.872;74.622;2023-05-29T07:46:18;9.50;;;4.53;;
52798;SDS011;38667;42.872;74.622;2023-05-29T07:48:45;9.35;;;4.20;;
52798;SDS011;38667;42.872;74.622;2023-05-29T07:51:11;6.10;;;3.80;;
52798;SDS011;38667;42.872;74.622;2023-05-29T07:53:38;8.75;;;4.35;;
52798;SDS011;38667;42.872;74.622;2023-05-29T07:56:04;7.90;;;4.43;;
52798;SDS011;38667;42.872;74.622;2023-05-29T07:58:31;8.77;;;4.97;;
52798;SDS011;38667;42.872;74.622;2023-05-29T08:00:57;7.85;;;4.70;;
52798;SDS011;38667;42.872;74.622;2023-05-29T08:03:25;9.38;;;4.70;;
52798;SDS011;38667;42.872;74.622;2023-05-29T08:05:51;12.50;;;5.00;;
52798;SDS011;38667;42.872;74.622;2023-05-29T08:08:17;6.43;;;4.53;;
52798;SDS011;38667;42.872;74.622;2023-05-29T08:10:43;6.72;;;4.32;;
52798;SDS011;38667;42.872;74.622;2023-05-29T08:13:10;8.25;;;4.68;;
52798;SDS011;38667;42.872;74.622;2023-05-29T08:15:36;6.55;;;4.30;;
52798;SDS011;38667;42.872;74.622;2023-05-29T08:18:02;17.15;;;5.10;;
52798;SDS011;38667;42.872;74.622;2023-05-29T08:20:30;8.20;;;3.92;;
52798;SDS011;38667;42.872;74.622;2023-05-29T08:22:57;5.50;;;4.15;;
52798;SDS011;38667;42.872;74.622;2023-05-29T08:25:23;8.70;;;4.20;;
52798;SDS011;38667;42.872;74.622;2023-05-29T08:27:49;6.88;;;4.10;;
52798;SDS011;38667;42.872;74.622;2023-05-29T08:30:15;7.10;;;4.47;;
52798;SDS011;38667;42.872;74.622;2023-05-29T08:32:42;12.60;;;4.63;;
52798;SDS011;38667;42.872;74.622;2023-05-29T08:35:08;14.68;;;4.97;;
52798;SDS011;38667;42.872;74.622;2023-05-29T08:37:36;9.48;;;5.13;;
52798;SDS011;38667;42.872;74.622;2023-05-29T08:40:02;15.10;;;5.72;;
52798;SDS011;38667;42.872;74.622;2023-05-29T08:42:29;11.63;;;5.45;;
52798;SDS011;38667;42.872;74.622;2023-05-29T08:45:02;10.13;;;4.85;;
52798;SDS011;38667;42.872;74.622;2023-05-29T08:47:29;8.88;;;4.22;;
52798;SDS011;38667;42.872;74.622;2023-05-29T08:49:58;7.53;;;5.50;;
52798;SDS011;38667;42.872;74.622;2023-05-29T08:52:27;12.02;;;5.28;;
52798;SDS011;38667;42.872;74.622;2023-05-29T08:54:59;10.90;;;6.03;;
52798;SDS011;38667;42.872;74.622;2023-05-29T08:57:26;10.43;;;5.13;;
52798;SDS011;38667;42.872;74.622;2023-05-29T08:59:53;13.48;;;6.18;;
52798;SDS011;38667;42.872;74.622;2023-05-29T09:02:21;11.95;;;7.30;;
52798;SDS011;38667;42.872;74.622;2023-05-29T09:04:48;12.82;;;6.15;;
52798;SDS011;38667;42.872;74.622;2023-05-29T09:07:14;10.43;;;5.18;;
52798;SDS011;38667;42.872;74.622;2023-05-29T09:09:41;7.38;;;4.63;;
52798;SDS011;38667;42.872;74.622;2023-05-29T09:12:09;12.50;;;4.70;;
52798;SDS011;38667;42.872;74.622;2023-05-29T09:14:36;11.00;;;4.68;;
52798;SDS011;38667;42.872;74.622;2023-05-29T09:17:03;6.10;;;4.35;;
52798;SDS011;38667;42.872;74.622;2023-05-29T09:19:30;6.70;;;4.47;;
52798;SDS011;38667;42.872;74.622;2023-05-29T09:22:05;6.75;;;4.35;;
52798;SDS011;38667;42.872;74.622;2023-05-29T09:24:33;7.18;;;3.90;;
52798;SDS011;38667;42.872;74.622;2023-05-29T09:27:00;5.45;;;3.88;;
52798;SDS011;38667;42.872;74.622;2023-05-29T09:29:30;7.72;;;3.88;;
52798;SDS011;38667;42.872;74.622;2023-05-29T09:31:56;8.07;;;4.18;;
52798;SDS011;38667;42.872;74.622;2023-05-29T09:34:23;8.95;;;4.28;;
52798;SDS011;38667;42.872;74.622;2023-05-29T09:36:50;7.00;;;4.18;;
52798;SDS011;38667;42.872;74.622;2023-05-29T09:39:16;9.32;;;4.63;;
52798;SDS011;38667;42.872;74.622;2023-05-29T09:41:42;8.05;;;4.22;;
52798;SDS011;38667;42.872;74.622;2023-05-29T09:44:11;8.77;;;4.65;;
52798;SDS011;38667;42.872;74.622;2023-05-29T09:46:39;8.25;;;4.55;;
52798;SDS011;38667;42.872;74.622;2023-05-29T09:49:09;6.90;;;4.05;;
52798;SDS011;38667;42.872;74.622;2023-05-29T09:51:37;7.25;;;4.55;;
52798;SDS011;38667;42.872;74.622;2023-05-29T09:54:12;7.60;;;4.38;;
52798;SDS011;38667;42.872;74.622;2023-05-29T09:56:40;9.27;;;4.07;;
52798;SDS011;38667;42.872;74.622;2023-05-29T09:59:07;7.70;;;3.97;;
52798;SDS011;38667;42.872;74.622;2023-05-29T10:01:36;10.30;;;4.35;;
52798;SDS011;38667;42.872;74.622;2023-05-29T10:04:06;8.38;;;4.55;;
52798;SDS011;38667;42.872;74.622;2023-05-29T10:06:32;10.82;;;4.50;;
52798;SDS011;38667;42.872;74.622;2023-05-29T10:09:02;6.13;;;4.07;;
52798;SDS011;38667;42.872;74.622;2023-05-29T10:11:31;6.40;;;4.40;;
52798;SDS011;38667;42.872;74.622;2023-05-29T10:13:58;8.75;;;4.20;;
52798;SDS011;38667;42.872;74.622;2023-05-29T10:16:25;9.32;;;4.18;;
52798;SDS011;38667;42.872;74.622;2023-05-29T10:18:55;9.90;;;4.47;;
52798;SDS011;38667;42.872;74.622;2023-05-29T10:21:22;7.75;;;4.15;;
52798;SDS011;38667;42.872;74.622;2023-05-29T10:23:51;6.05;;;4.32;;
52798;SDS011;38667;42.872;74.622;2023-05-29T10:26:20;8.25;;;4.40;;
52798;SDS011;38667;42.872;74.622;2023-05-29T10:28:49;7.38;;;4.25;;
52798;SDS011;38667;42.872;74.622;2023-05-29T10:31:21;6.97;;;3.85;;
52798;SDS011;38667;42.872;74.622;2023-05-29T10:33:59;7.95;;;4.40;;
52798;SDS011;38667;42.872;74.622;2023-05-29T10:36:34;8.35;;;3.72;;
52798;SDS011;38667;42.872;74.622;2023-05-29T10:39:04;11.40;;;4.15;;
52798;SDS011;38667;42.872;74.622;2023-05-29T10:41:30;6.68;;;3.58;;
52798;SDS011;38667;42.872;74.622;2023-05-29T10:43:57;6.63;;;3.90;;
52798;SDS011;38667;42.872;74.622;2023-05-29T10:49:25;7.18;;;4.18;;
52798;SDS011;38667;42.872;74.622;2023-05-29T10:51:52;7.35;;;4.03;;
52798;SDS011;38667;42.872;74.622;2023-05-29T10:54:19;8.63;;;4.28;;
52798;SDS011;38667;42.872;74.622;2023-05-29T10:56:51;9.27;;;3.80;;
52798;SDS011;38667;42.872;74.622;2023-05-29T10:59:20;9.48;;;4.30;;
52798;SDS011;38667;42.872;74.622;2023-05-29T11:01:46;8.43;;;4.00;;
52798;SDS011;38667;42.872;74.622;2023-05-29T11:04:27;7.70;;;3.90;;
52798;SDS011;38667;42.872;74.622;2023-05-29T11:06:54;5.47;;;3.63;;
52798;SDS011;38667;42.872;74.622;2023-05-29T11:09:26;10.30;;;3.72;;
52798;SDS011;38667;42.872;74.622;2023-05-29T11:14:44;7.72;;;3.75;;
52798;SDS011;38667;42.872;74.622;2023-05-29T11:17:23;8.27;;;4.00;;
52798;SDS011;38667;42.872;74.622;2023-05-29T11:20:00;8.68;;;3.90;;
52798;SDS011;38667;42.872;74.622;2023-05-29T11:22:29;7.07;;;3.80;;
52798;SDS011;38667;42.872;74.622;2023-05-29T11:25:13;8.15;;;3.95;;
52798;SDS011;38667;42.872;74.622;2023-05-29T11:27:40;7.82;;;3.60;;
52798;SDS011;38667;42.872;74.622;2023-05-29T11:30:06;8.85;;;3.95;;
52798;SDS011;38667;42.872;74.622;2023-05-29T11:32:33;4.63;;;3.38;;
52798;SDS011;38667;42.872;74.622;2023-05-29T11:35:04;4.85;;;3.15;;
52798;SDS011;38667;42.872;74.622;2023-05-29T11:37:34;7.22;;;3.80;;
52798;SDS011;38667;42.872;74.622;2023-05-29T11:40:00;5.22;;;3.42;;
52798;SDS011;38667;42.872;74.622;2023-05-29T11:42:29;8.68;;;3.58;;
52798;SDS011;38667;42.872;74.622;2023-05-29T11:44:56;7.38;;;3.90;;
52798;SDS011;38667;42.872;74.622;2023-05-29T11:47:49;9.45;;;3.78;;
52798;SDS011;38667;42.872;74.622;2023-05-29T11:50:21;6.95;;;3.78;;
52798;SDS011;38667;42.872;74.622;2023-05-29T11:52:48;7.95;;;3.95;;
52798;SDS011;38667;42.872;74.622;2023-05-29T11:55:14;7.47;;;4.05;;
52798;SDS011;38667;42.872;74.622;2023-05-29T11:57:40;13.60;;;4.43;;
52798;SDS011;38667;42.872;74.622;2023-05-29T12:00:07;11.98;;;3.60;;
52798;SDS011;38667;42.872;74.622;2023-05-29T12:02:37;8.02;;;3.97;;
52798;SDS011;38667;42.872;74.622;2023-05-29T12:05:04;8.48;;;3.53;;
52798;SDS011;38667;42.872;74.622;2023-05-29T12:07:32;7.80;;;4.18;;
52798;SDS011;38667;42.872;74.622;2023-05-29T12:10:08;9.68;;;3.67;;
52798;SDS011;38667;42.872;74.622;2023-05-29T12:12:35;6.65;;;3.65;;
52798;SDS011;38667;42.872;74.622;2023-05-29T12:15:01;10.18;;;3.40;;
52798;SDS011;38667;42.872;74.622;2023-05-29T12:17:28;9.38;;;4.00;;
52798;SDS011;38667;42.872;74.622;2023-05-29T12:19:54;10.63;;;4.28;;
52798;SDS011;38667;42.872;74.622;2023-05-29T12:22:30;9.05;;;4.20;;
52798;SDS011;38667;42.872;74.622;2023-05-29T12:25:03;6.90;;;3.92;;
52798;SDS011;38667;42.872;74.622;2023-05-29T12:27:31;7.07;;;4.47;;
52798;SDS011;38667;42.872;74.622;2023-05-29T12:29:59;9.60;;;4.45;;
52798;SDS011;38667;42.872;74.622;2023-05-29T12:32:33;8.35;;;3.83;;
52798;SDS011;38667;42.872;74.622;2023-05-29T12:35:00;18.52;;;6.35;;
52798;SDS011;38667;42.872;74.622;2023-05-29T12:37:27;13.52;;;5.95;;
52798;SDS011;38667;42.872;74.622;2023-05-29T12:40:14;9.50;;;5.78;;
52798;SDS011;38667;42.872;74.622;2023-05-29T12:42:41;10.13;;;5.40;;
52798;SDS011;38667;42.872;74.622;2023-05-29T12:45:08;8.88;;;5.03;;
52798;SDS011;38667;42.872;74.622;2023-05-29T12:47:34;9.02;;;5.85;;
52798;SDS011;38667;42.872;74.622;2023-05-29T12:50:04;10.05;;;4.28;;
52798;SDS011;38667;42.872;74.622;2023-05-29T12:52:44;11.68;;;5.18;;
52798;SDS011;38667;42.872;74.622;2023-05-29T12:55:10;11.38;;;4.35;;
52798;SDS011;38667;42.872;74.622;2023-05-29T12:57:39;9.15;;;4.90;;
52798;SDS011;38667;42.872;74.622;2023-05-29T13:00:06;11.88;;;7.10;;
52798;SDS011;38667;42.872;74.622;2023-05-29T13:02:33;10.63;;;4.68;;
52798;SDS011;38667;42.872;74.622;2023-05-29T13:05:00;10.55;;;5.68;;
52798;SDS011;38667;42.872;74.622;2023-05-29T13:07:26;10.68;;;5.90;;
52798;SDS011;38667;42.872;74.622;2023-05-29T13:09:52;9.48;;;4.57;;
52798;SDS011;38667;42.872;74.622;2023-05-29T13:12:20;7.53;;;4.05;;
52798;SDS011;38667;42.872;74.622;2023-05-29T13:14:47;8.57;;;4.10;;
52798;SDS011;38667;42.872;74.622;2023-05-29T13:17:13;11.55;;;4.32;;
52798;SDS011;38667;42.872;74.622;2023-05-29T13:19:39;6.93;;;3.80;;
52798;SDS011;38667;42.872;74.622;2023-05-29T13:22:06;8.70;;;3.95;;
52798;SDS011;38667;42.872;74.622;2023-05-29T13:24:32;12.38;;;3.60;;
52798;SDS011;38667;42.872;74.622;2023-05-29T13:26:58;7.10;;;4.05;;
52798;SDS011;38667;42.872;74.622;2023-05-29T13:29:26;8.60;;;4.55;;
52798;SDS011;38667;42.872;74.622;2023-05-29T13:31:53;9.40;;;4.10;;
52798;SDS011;38667;42.872;74.622;2023-05-29T13:34:19;8.27;;;3.92;;
52798;SDS011;38667;42.872;74.622;2023-05-29T13:36:45;6.88;;;3.88;;
52798;SDS011;38667;42.872;74.622;2023-05-29T13:39:12;8.07;;;4.25;;
52798;SDS011;38667;42.872;74.622;2023-05-29T13:41:38;8.90;;;4.63;;
52798;SDS011;38667;42.872;74.622;2023-05-29T13:44:05;9.23;;;3.70;;
52798;SDS011;38667;42.872;74.622;2023-05-29T13:46:32;9.68;;;4.13;;
52798;SDS011;38667;42.872;74.622;2023-05-29T13:48:59;9.00;;;3.78;;
52798;SDS011;38667;42.872;74.622;2023-05-29T13:51:25;9.38;;;4.15;;
52798;SDS011;38667;42.872;74.622;2023-05-29T13:53:51;13.38;;;4.57;;
52798;SDS011;38667;42.872;74.622;2023-05-29T13:56:18;9.20;;;4.88;;
52798;SDS011;38667;42.872;74.622;2023-05-29T13:58:44;7.90;;;4.25;;
52798;SDS011;38667;42.872;74.622;2023-05-29T14:01:10;10.70;;;4.47;;
52798;SDS011;38667;42.872;74.622;2023-05-29T14:03:38;12.02;;;4.78;;
52798;SDS011;38667;42.872;74.622;2023-05-29T14:06:05;15.82;;;5.38;;
52798;SDS011;38667;42.872;74.622;2023-05-29T14:08:31;7.47;;;4.43;;
52798;SDS011;38667;42.872;74.622;2023-05-29T14:10:57;12.35;;;4.97;;
52798;SDS011;38667;42.872;74.622;2023-05-29T14:13:24;11.82;;;6.10;;
52798;SDS011;38667;42.872;74.622;2023-05-29T14:15:50;14.43;;;4.40;;
52798;SDS011;38667;42.872;74.622;2023-05-29T14:18:16;8.75;;;4.72;;
52798;SDS011;38667;42.872;74.622;2023-05-29T14:20:45;11.20;;;4.93;;
52798;SDS011;38667;42.872;74.622;2023-05-29T14:23:11;11.00;;;5.18;;
52798;SDS011;38667;42.872;74.622;2023-05-29T14:25:37;14.63;;;5.20;;
52798;SDS011;38667;42.872;74.622;2023-05-29T14:28:04;12.07;;;5.20;;
52798;SDS011;38667;42.872;74.622;2023-05-29T14:30:30;12.35;;;4.70;;
52798;SDS011;38667;42.872;74.622;2023-05-29T14:32:57;12.82;;;6.35;;
52798;SDS011;38667;42.872;74.622;2023-05-29T14:35:23;13.07;;;5.57;;
52798;SDS011;38667;42.872;74.622;2023-05-29T14:37:51;15.65;;;5.32;;
52798;SDS011;38667;42.872;74.622;2023-05-29T14:40:18;12.75;;;4.93;;
52798;SDS011;38667;42.872;74.622;2023-05-29T14:42:44;13.00;;;5.28;;
52798;SDS011;38667;42.872;74.622;2023-05-29T14:45:10;12.57;;;5.40;;
52798;SDS011;38667;42.872;74.622;2023-05-29T14:47:37;7.20;;;4.90;;
52798;SDS011;38667;42.872;74.622;2023-05-29T14:50:04;18.90;;;5.63;;
52798;SDS011;38667;42.872;74.622;2023-05-29T14:52:31;12.10;;;4.82;;
52798;SDS011;38667;42.872;74.622;2023-05-29T14:55:02;13.63;;;4.85;;
52798;SDS011;38667;42.872;74.622;2023-05-29T14:57:29;10.98;;;5.18;;
52798;SDS011;38667;42.872;74.622;2023-05-29T14:59:56;13.10;;;4.88;;
52798;SDS011;38667;42.872;74.622;2023-05-29T15:02:22;11.00;;;5.40;;
52798;SDS011;38667;42.872;74.622;2023-05-29T15:04:49;10.00;;;4.88;;
52798;SDS011;38667;42.872;74.622;2023-05-29T15:07:16;14.18;;;5.22;;
52798;SDS011;38667;42.872;74.622;2023-05-29T15:09:42;15.18;;;4.80;;
52798;SDS011;38667;42.872;74.622;2023-05-29T15:32:47;15.00;;;5.40;;
52798;SDS011;38667;42.872;74.622;2023-05-29T15:35:14;9.70;;;5.22;;
52798;SDS011;38667;42.872;74.622;2023-05-29T15:37:41;11.95;;;5.13;;
52798;SDS011;38667;42.872;74.622;2023-05-29T15:40:08;11.20;;;6.03;;
52798;SDS011;38667;42.872;74.622;2023-05-29T15:42:35;15.18;;;5.40;;
52798;SDS011;38667;42.872;74.622;2023-05-29T15:45:02;11.85;;;5.70;;
52798;SDS011;38667;42.872;74.622;2023-05-29T15:47:28;9.20;;;4.90;;
52798;SDS011;38667;42.872;74.622;2023-05-29T15:49:57;14.75;;;6.30;;
52798;SDS011;38667;42.872;74.622;2023-05-29T15:52:23;12.23;;;5.55;;
52798;SDS011;38667;42.872;74.622;2023-05-29T15:54:50;15.40;;;6.20;;
52798;SDS011;38667;42.872;74.622;2023-05-29T15:57:16;16.08;;;6.05;;
52798;SDS011;38667;42.872;74.622;2023-05-29T15:59:42;9.48;;;5.80;;
52798;SDS011;38667;42.872;74.622;2023-05-29T16:02:09;14.07;;;6.57;;